Time;durP1;ratioP1;P1;durP2;ratioP2;P2;SDS_P1;SDS_P2;PMS_P1;PMS_P2;Temp;Humidity;BMP_temperature;BMP_pressure;BME280_temperature;BME280_humidity;BME280_pressure;Samples;Min_cycle;Max_cycle;Signal;HPM_P1;HPM_P2
2021/05/29 00:01:48;;;;;;;7.35;4.70;;;9.40;99.90;;;;;;5031648;28;20029;-50
2021/05/29 00:04:14;;;;;;;6.80;4.70;;;9.30;99.90;;;;;;5030313;28;20018;-48
2021/05/29 00:06:39;;;;;;;6.70;4.93;;;9.30;99.90;;;;;;5031497;28;20086;-47
2021/05/29 00:09:06;;;;;;;7.25;5.00;;;9.20;99.90;;;;;;5031354;28;20391;-47
2021/05/29 00:11:32;;;;;;;6.57;4.05;;;9.20;99.90;;;;;;5031953;28;20053;-47
2021/05/29 00:13:58;;;;;;;6.95;5.07;;;9.20;99.90;;;;;;5031395;28;20084;-47
2021/05/29 00:16:24;;;;;;;7.40;4.80;;;9.10;99.90;;;;;;5029995;28;20025;-48
2021/05/29 00:18:49;;;;;;;5.25;4.53;;;9.10;99.90;;;;;;5029043;28;20475;-47
2021/05/29 00:21:15;;;;;;;9.48;5.50;;;9.10;99.90;;;;;;5031125;28;20021;-47
2021/05/29 00:23:40;;;;;;;7.28;5.25;;;9.00;99.90;;;;;;5029878;28;20109;-47
2021/05/29 00:26:07;;;;;;;6.93;5.10;;;9.00;99.90;;;;;;5031363;28;20028;-47
2021/05/29 00:28:32;;;;;;;6.57;4.88;;;9.00;99.90;;;;;;5030979;28;20036;-48
2021/05/29 00:30:58;;;;;;;6.80;5.80;;;9.00;99.90;;;;;;5029820;28;20484;-47
2021/05/29 00:33:23;;;;;;;6.15;5.15;;;8.90;99.90;;;;;;5031178;28;20111;-47
2021/05/29 00:35:49;;;;;;;6.50;5.22;;;8.90;99.90;;;;;;5031001;28;20402;-47
2021/05/29 00:38:14;;;;;;;7.88;5.55;;;8.80;99.90;;;;;;5030624;28;20037;-47
2021/05/29 00:40:40;;;;;;;7.97;5.03;;;8.90;99.90;;;;;;5030806;28;20034;-47
2021/05/29 00:43:05;;;;;;;9.23;5.30;;;8.80;99.90;;;;;;5031056;28;20022;-47
2021/05/29 00:45:32;;;;;;;7.75;5.80;;;8.80;99.90;;;;;;5031191;28;20097;-47
2021/05/29 00:48:00;;;;;;;8.77;7.18;;;8.80;99.90;;;;;;5030506;28;20124;-48
2021/05/29 00:50:25;;;;;;;8.52;7.20;;;8.80;99.90;;;;;;5031024;28;20030;-47
2021/05/29 00:52:51;;;;;;;9.27;6.13;;;8.80;99.90;;;;;;5030793;28;20026;-47
2021/05/29 00:55:17;;;;;;;8.70;6.57;;;8.80;99.90;;;;;;5029573;28;20030;-47
2021/05/29 00:57:48;;;;;;;11.48;7.60;;;8.80;99.90;;;;;;5030046;28;20029;-48
2021/05/29 01:00:17;;;;;;;10.93;7.50;;;8.80;99.90;;;;;;5030474;28;20029;-47
2021/05/29 01:02:43;;;;;;;12.25;7.70;;;8.90;99.90;;;;;;5030333;28;20495;-47
2021/05/29 01:05:11;;;;;;;13.85;7.57;;;8.90;99.90;;;;;;5030678;28;20287;-47
2021/05/29 01:07:37;;;;;;;9.55;7.28;;;9.00;99.90;;;;;;5029786;28;20025;-47
2021/05/29 01:10:05;;;;;;;10.73;7.68;;;9.00;99.90;;;;;;5030332;28;20021;-47
2021/05/29 01:12:31;;;;;;;13.98;8.20;;;9.00;99.90;;;;;;5030222;28;20061;-47
2021/05/29 01:14:57;;;;;;;12.63;8.27;;;9.10;99.90;;;;;;5030520;28;20451;-49
2021/05/29 01:17:25;;;;;;;11.27;7.47;;;9.10;99.90;;;;;;5029855;28;20364;-47
2021/05/29 01:19:51;;;;;;;11.75;7.70;;;9.20;99.90;;;;;;5030139;28;20025;-47
2021/05/29 01:22:45;;;;;;;12.70;7.80;;;9.20;99.90;;;;;;5030136;28;20025;-47
2021/05/29 01:25:29;;;;;;;16.35;8.95;;;9.30;99.90;;;;;;5028736;28;20571;-48
2021/05/29 01:28:07;;;;;;;15.13;8.88;;;9.40;99.90;;;;;;5029630;28;20411;-50
2021/05/29 01:30:44;;;;;;;13.68;8.25;;;9.40;99.90;;;;;;5029955;28;20030;-49
2021/05/29 01:33:11;;;;;;;13.25;8.68;;;9.40;99.90;;;;;;5029906;28;20029;-48
2021/05/29 01:35:37;;;;;;;13.73;8.27;;;9.50;99.90;;;;;;5029797;28;20060;-48
2021/05/29 01:38:03;;;;;;;15.18;8.75;;;9.50;99.90;;;;;;5029217;28;20049;-49
2021/05/29 01:40:29;;;;;;;15.10;7.68;;;9.60;99.90;;;;;;5030024;28;20029;-47
2021/05/29 01:42:57;;;;;;;16.02;9.35;;;9.60;99.90;;;;;;5029707;28;20025;-47
2021/05/29 01:45:26;;;;;;;14.85;8.73;;;9.60;99.90;;;;;;5029773;28;20109;-46
2021/05/29 01:47:52;;;;;;;11.75;7.90;;;9.60;99.90;;;;;;5029316;28;20026;-47
2021/05/29 01:50:18;;;;;;;12.23;9.05;;;9.60;99.90;;;;;;5029587;28;20486;-48
2021/05/29 01:52:58;;;;;;;14.77;8.63;;;9.60;99.90;;;;;;5029437;28;20029;-49
2021/05/29 01:55:27;;;;;;;13.65;8.80;;;9.60;99.90;;;;;;5029564;28;20537;-48
2021/05/29 01:57:54;;;;;;;17.00;8.45;;;9.70;99.90;;;;;;5029061;28;20033;-47
2021/05/29 02:00:24;;;;;;;16.10;8.07;;;9.70;99.90;;;;;;5029443;28;20056;-50
2021/05/29 02:02:50;;;;;;;12.40;8.27;;;9.70;99.90;;;;;;5029456;28;20033;-47
2021/05/29 02:05:29;;;;;;;13.07;8.20;;;9.70;99.90;;;;;;5028995;28;20014;-50
2021/05/29 02:07:59;;;;;;;16.48;9.10;;;9.70;99.90;;;;;;5029077;28;20021;-49
2021/05/29 02:10:26;;;;;;;10.60;7.70;;;9.80;99.90;;;;;;5029380;28;20025;-47
2021/05/29 02:12:54;;;;;;;12.00;8.13;;;9.80;99.90;;;;;;5029229;28;20054;-47
2021/05/29 02:15:31;;;;;;;11.27;8.43;;;9.80;99.90;;;;;;5029148;28;20041;-47
2021/05/29 02:17:59;;;;;;;15.63;8.73;;;9.90;99.90;;;;;;5027546;28;20029;-49
2021/05/29 02:20:46;;;;;;;13.43;9.10;;;9.80;99.90;;;;;;5029350;28;20075;-47
2021/05/29 02:23:18;;;;;;;14.82;8.35;;;9.80;99.90;;;;;;5029511;28;20013;-48
2021/05/29 02:25:44;;;;;;;12.75;8.82;;;9.80;99.90;;;;;;5029503;28;20263;-47
2021/05/29 02:28:10;;;;;;;9.98;8.20;;;9.90;99.90;;;;;;5029093;28;20025;-47
2021/05/29 02:30:35;;;;;;;11.60;8.05;;;9.90;99.90;;;;;;5029111;28;20029;-47
2021/05/29 02:33:02;;;;;;;10.60;7.85;;;9.90;99.90;;;;;;5028914;28;20041;-47
2021/05/29 02:35:28;;;;;;;15.65;9.02;;;9.90;99.90;;;;;;5029102;28;20474;-47
2021/05/29 02:37:53;;;;;;;10.07;7.82;;;10.00;99.90;;;;;;5028490;28;20041;-47
2021/05/29 02:40:19;;;;;;;13.82;8.98;;;9.90;99.90;;;;;;5027584;28;20044;-48
2021/05/29 02:42:44;;;;;;;16.08;9.20;;;9.90;99.90;;;;;;5028858;28;20568;-47
2021/05/29 02:45:11;;;;;;;12.10;9.25;;;9.90;99.90;;;;;;5029143;28;20033;-50
2021/05/29 02:47:37;;;;;;;16.75;8.95;;;9.90;99.90;;;;;;5029008;28;20040;-48
2021/05/29 02:50:04;;;;;;;11.52;8.82;;;9.90;99.90;;;;;;5029128;28;20503;-48
2021/05/29 02:52:29;;;;;;;16.27;8.70;;;9.90;99.90;;;;;;5029100;28;20037;-49
2021/05/29 02:54:55;;;;;;;13.25;8.05;;;9.90;99.90;;;;;;5029519;28;20050;-49
2021/05/29 02:57:20;;;;;;;15.18;9.15;;;9.90;99.90;;;;;;5028696;28;20148;-48
2021/05/29 02:59:46;;;;;;;14.23;9.98;;;9.90;99.90;;;;;;5028647;28;20193;-50
2021/05/29 03:02:12;;;;;;;19.92;8.77;;;9.90;99.90;;;;;;5028409;28;20524;-50
2021/05/29 03:04:38;;;;;;;14.13;8.63;;;9.90;99.90;;;;;;5028473;28;20022;-51
2021/05/29 03:07:05;;;;;;;11.68;9.13;;;9.90;99.90;;;;;;5028655;28;20101;-48
2021/05/29 03:09:31;;;;;;;11.02;8.27;;;9.90;99.90;;;;;;5028076;28;20061;-48
2021/05/29 03:11:57;;;;;;;13.95;8.95;;;9.90;99.90;;;;;;5028580;28;20076;-47
2021/05/29 03:14:23;;;;;;;12.98;8.80;;;9.90;99.90;;;;;;5028627;28;20033;-47
2021/05/29 03:16:49;;;;;;;14.88;9.32;;;9.90;99.90;;;;;;5028652;28;20034;-47
2021/05/29 03:19:15;;;;;;;13.85;9.38;;;9.90;99.90;;;;;;5030270;28;20034;-49
2021/05/29 03:21:41;;;;;;;15.02;8.65;;;9.90;99.90;;;;;;5032681;28;20040;-47
2021/05/29 03:24:08;;;;;;;13.93;8.65;;;9.90;99.90;;;;;;5032972;28;20105;-48
2021/05/29 03:26:33;;;;;;;14.48;8.10;;;9.90;99.90;;;;;;5032202;28;20076;-50
2021/05/29 03:29:00;;;;;;;16.10;8.48;;;9.80;99.90;;;;;;5031843;28;20053;-48
2021/05/29 03:31:26;;;;;;;14.90;8.80;;;9.90;99.90;;;;;;5032209;28;20017;-47
2021/05/29 03:33:52;;;;;;;15.70;8.18;;;9.90;99.90;;;;;;5032478;28;20092;-48
2021/05/29 03:36:18;;;;;;;12.48;8.02;;;9.90;99.90;;;;;;5032198;28;20030;-47
2021/05/29 03:38:43;;;;;;;14.15;7.70;;;10.00;99.90;;;;;;5031530;28;20030;-47
2021/05/29 03:41:09;;;;;;;15.82;8.55;;;9.90;99.90;;;;;;5031973;28;20088;-47
2021/05/29 03:43:35;;;;;;;12.60;8.40;;;9.90;99.90;;;;;;5032228;28;20688;-47
2021/05/29 03:46:00;;;;;;;13.85;7.63;;;9.90;99.90;;;;;;5031954;28;20027;-48
2021/05/29 03:48:26;;;;;;;11.73;7.65;;;9.90;99.90;;;;;;5031819;28;20025;-48
2021/05/29 03:50:51;;;;;;;11.30;7.10;;;9.90;99.90;;;;;;5031993;28;20498;-48
2021/05/29 03:53:17;;;;;;;12.57;7.53;;;9.90;99.90;;;;;;5032450;28;20104;-48
2021/05/29 03:55:43;;;;;;;11.18;7.38;;;9.90;99.90;;;;;;5031986;28;20158;-48
2021/05/29 03:58:08;;;;;;;12.50;7.30;;;9.90;99.90;;;;;;5031373;28;20037;-47
2021/05/29 04:00:34;;;;;;;17.58;9.32;;;9.90;99.90;;;;;;5031642;28;20037;-48
2021/05/29 04:02:59;;;;;;;18.30;8.55;;;9.90;99.90;;;;;;5031619;28;20022;-51
2021/05/29 04:05:25;;;;;;;12.43;8.00;;;9.90;99.90;;;;;;5031570;28;20032;-48
2021/05/29 04:07:51;;;;;;;12.85;8.70;;;9.90;99.90;;;;;;5031005;28;20268;-48
2021/05/29 04:10:21;;;;;;;14.23;7.18;;;9.90;99.90;;;;;;5031886;28;20104;-48
2021/05/29 04:12:47;;;;;;;14.10;8.57;;;9.90;99.90;;;;;;5031368;28;20087;-48
2021/05/29 04:15:13;;;;;;;12.25;7.65;;;9.90;99.90;;;;;;5031787;28;20029;-48
2021/05/29 04:17:41;;;;;;;10.40;7.47;;;9.90;99.90;;;;;;5031104;28;20037;-48
2021/05/29 04:20:07;;;;;;;11.45;7.95;;;9.90;99.90;;;;;;5031846;28;20025;-47
2021/05/29 04:22:33;;;;;;;12.70;8.30;;;9.90;99.90;;;;;;5031841;28;20017;-48
2021/05/29 04:24:59;;;;;;;11.20;8.13;;;9.90;99.90;;;;;;5031140;28;20434;-48
2021/05/29 04:27:25;;;;;;;12.60;7.93;;;9.90;99.90;;;;;;5030731;28;20060;-48
2021/05/29 04:29:51;;;;;;;14.93;8.32;;;9.90;99.90;;;;;;5030989;28;20380;-49
2021/05/29 04:32:16;;;;;;;16.00;8.88;;;9.90;99.90;;;;;;5031040;28;20231;-48
2021/05/29 04:34:42;;;;;;;14.50;8.13;;;9.90;99.90;;;;;;5031061;28;20026;-48
2021/05/29 04:37:07;;;;;;;15.13;9.05;;;9.90;99.90;;;;;;5030951;28;20028;-47
2021/05/29 04:39:33;;;;;;;14.02;9.98;;;9.90;99.90;;;;;;5030036;28;20541;-48
2021/05/29 04:41:58;;;;;;;13.27;8.80;;;9.90;99.90;;;;;;5031040;28;20030;-49
2021/05/29 04:44:24;;;;;;;14.35;8.60;;;10.00;99.90;;;;;;5030958;28;20088;-47
2021/05/29 04:46:51;;;;;;;16.00;9.43;;;10.00;99.90;;;;;;5030729;28;20026;-47
2021/05/29 04:49:22;;;;;;;14.10;9.10;;;10.00;99.90;;;;;;5030202;28;20033;-47
2021/05/29 04:51:48;;;;;;;14.50;8.88;;;10.00;99.90;;;;;;5030882;28;20026;-47
2021/05/29 04:54:15;;;;;;;17.85;9.45;;;10.10;99.90;;;;;;5030749;28;20025;-47
2021/05/29 04:56:40;;;;;;;12.35;8.75;;;10.10;99.90;;;;;;5029393;28;20033;-47
2021/05/29 04:59:07;;;;;;;15.18;8.70;;;10.10;99.90;;;;;;5030539;28;20444;-47
2021/05/29 05:01:32;;;;;;;10.90;6.60;;;10.10;99.90;;;;;;5030591;28;20029;-47
2021/05/29 05:03:59;;;;;;;14.25;7.93;;;10.20;99.90;;;;;;5030739;28;20025;-47
2021/05/29 05:06:25;;;;;;;13.73;7.65;;;10.20;99.90;;;;;;5031012;28;20451;-47
2021/05/29 05:08:51;;;;;;;10.57;6.57;;;10.20;99.90;;;;;;5029817;28;20112;-47
2021/05/29 05:11:17;;;;;;;14.85;7.05;;;10.20;99.90;;;;;;5029249;28;20024;-48
2021/05/29 05:13:42;;;;;;;10.15;5.72;;;10.20;99.90;;;;;;5030671;28;20395;-50
2021/05/29 05:16:08;;;;;;;13.15;7.22;;;10.20;99.90;;;;;;5030681;28;20032;-46
2021/05/29 05:18:33;;;;;;;12.27;7.20;;;10.10;99.90;;;;;;5029844;28;20075;-47
2021/05/29 05:20:59;;;;;;;12.82;6.78;;;10.10;99.90;;;;;;5030203;28;20033;-47
2021/05/29 05:23:25;;;;;;;13.35;7.38;;;10.10;99.90;;;;;;5030090;28;20082;-47
2021/05/29 05:25:54;;;;;;;11.27;6.60;;;10.10;99.90;;;;;;5030136;28;20022;-47
2021/05/29 05:28:25;;;;;;;15.93;6.97;;;10.10;99.90;;;;;;5029546;28;20057;-47
2021/05/29 05:30:50;;;;;;;10.30;6.63;;;10.20;99.90;;;;;;5029948;28;20029;-46
2021/05/29 05:33:18;;;;;;;11.27;7.00;;;10.10;99.90;;;;;;5029904;28;20033;-50
2021/05/29 05:35:43;;;;;;;11.70;7.35;;;10.10;99.90;;;;;;5029824;28;20075;-48
2021/05/29 05:38:09;;;;;;;12.45;6.45;;;10.20;99.90;;;;;;5029295;28;20027;-48
2021/05/29 05:40:34;;;;;;;13.27;6.78;;;10.20;99.90;;;;;;5029037;28;20383;-48
2021/05/29 05:43:00;;;;;;;10.43;6.82;;;10.20;99.90;;;;;;5029675;28;20025;-47
2021/05/29 05:45:26;;;;;;;14.27;7.38;;;10.30;99.90;;;;;;5029685;28;20471;-48
2021/05/29 05:47:52;;;;;;;17.85;7.22;;;10.20;99.90;;;;;;5029004;28;20078;-48
2021/05/29 05:50:17;;;;;;;12.07;7.25;;;10.20;99.90;;;;;;5029349;28;20033;-48
2021/05/29 05:52:43;;;;;;;10.93;6.53;;;10.20;99.90;;;;;;5028321;28;20032;-48
2021/05/29 05:55:10;;;;;;;14.82;7.15;;;10.20;99.90;;;;;;5029673;28;20597;-48
2021/05/29 05:57:35;;;;;;;11.63;7.20;;;10.30;99.90;;;;;;5029017;28;20022;-48
2021/05/29 06:00:03;;;;;;;13.68;6.25;;;10.30;99.90;;;;;;5029452;28;20324;-48
2021/05/29 06:02:28;;;;;;;9.25;6.10;;;10.30;99.90;;;;;;5029330;28;20033;-48
2021/05/29 06:04:54;;;;;;;18.45;8.10;;;10.30;99.90;;;;;;5029246;28;20041;-48
2021/05/29 06:07:19;;;;;;;9.57;6.30;;;10.30;99.90;;;;;;5029019;28;20029;-48
2021/05/29 06:09:45;;;;;;;10.45;6.10;;;10.30;99.90;;;;;;5029134;28;20033;-51
2021/05/29 06:12:11;;;;;;;13.82;6.43;;;10.40;99.90;;;;;;5029265;28;20079;-49
2021/05/29 06:20:10;;;;;;;9.52;6.38;;;10.50;99.90;;;;;;5029096;28;20036;-48
2021/05/29 06:22:35;;;;;;;13.50;6.97;;;10.50;99.90;;;;;;5029707;28;20021;-48
2021/05/29 06:25:01;;;;;;;8.80;5.68;;;10.50;99.90;;;;;;5029478;28;20044;-52
2021/05/29 06:27:26;;;;;;;11.48;6.47;;;10.50;99.90;;;;;;5028676;28;20014;-48
2021/05/29 06:29:52;;;;;;;12.93;7.30;;;10.50;99.90;;;;;;5027735;28;20036;-49
2021/05/29 06:32:17;;;;;;;13.52;7.38;;;10.50;99.90;;;;;;5029192;28;20026;-48
2021/05/29 06:34:43;;;;;;;13.18;7.00;;;10.50;99.90;;;;;;5029202;28;20292;-50
2021/05/29 06:37:08;;;;;;;14.85;8.20;;;10.50;99.90;;;;;;5029484;28;20114;-48
2021/05/29 06:39:34;;;;;;;16.58;7.43;;;10.50;99.90;;;;;;5028423;28;20121;-48
2021/05/29 06:42:00;;;;;;;14.30;7.15;;;10.40;99.90;;;;;;5029072;28;20029;-49
2021/05/29 06:44:26;;;;;;;11.02;7.30;;;10.40;99.90;;;;;;5028957;28;20025;-49
2021/05/29 06:46:51;;;;;;;12.02;7.32;;;10.50;99.90;;;;;;5027519;28;20033;-48
2021/05/29 06:49:20;;;;;;;9.45;6.60;;;10.50;99.90;;;;;;5028193;28;20033;-50
2021/05/29 06:51:54;;;;;;;17.25;8.02;;;10.50;99.90;;;;;;5029713;28;20025;-50
2021/05/29 06:59:51;;;;;;;11.57;6.55;;;10.70;99.90;;;;;;5033113;28;20079;-48
2021/05/29 07:02:16;;;;;;;11.68;6.70;;;10.70;99.90;;;;;;5032675;28;20029;-48
2021/05/29 07:04:42;;;;;;;13.25;7.25;;;10.70;99.90;;;;;;5031445;28;20026;-48
2021/05/29 07:07:08;;;;;;;13.57;6.68;;;10.80;99.90;;;;;;5032762;28;20025;-49
2021/05/29 07:09:34;;;;;;;8.65;5.82;;;10.90;99.90;;;;;;5032187;28;20444;-48
2021/05/29 07:11:59;;;;;;;10.68;6.85;;;10.90;99.90;;;;;;5032670;28;20210;-50
2021/05/29 07:14:25;;;;;;;15.27;6.90;;;11.00;99.90;;;;;;5032673;28;20071;-49
2021/05/29 07:16:52;;;;;;;8.38;6.03;;;10.90;99.90;;;;;;5031111;28;20025;-47
2021/05/29 07:19:19;;;;;;;11.20;6.20;;;11.00;99.90;;;;;;5032161;28;20036;-48
2021/05/29 07:21:44;;;;;;;12.65;6.82;;;11.00;99.90;;;;;;5032487;28;20022;-48
2021/05/29 07:24:10;;;;;;;10.18;5.85;;;11.10;99.90;;;;;;5032403;28;20033;-48
2021/05/29 07:26:36;;;;;;;11.30;6.63;;;11.20;99.90;;;;;;5032202;28;20037;-51
2021/05/29 07:29:02;;;;;;;9.75;6.47;;;11.30;99.90;;;;;;5031657;28;20526;-48
2021/05/29 07:31:28;;;;;;;12.65;6.72;;;11.30;99.90;;;;;;5032375;28;20017;-48
2021/05/29 07:33:55;;;;;;;15.02;6.75;;;11.40;99.90;;;;;;5032105;28;20044;-47
2021/05/29 07:36:21;;;;;;;8.80;6.45;;;11.40;99.90;;;;;;5032029;28;20028;-48
2021/05/29 07:38:47;;;;;;;9.90;6.03;;;11.50;99.90;;;;;;5030135;28;20068;-48
2021/05/29 07:41:12;;;;;;;9.88;5.82;;;11.60;99.90;;;;;;5032088;28;20065;-48
2021/05/29 07:43:38;;;;;;;8.60;5.93;;;11.60;99.90;;;;;;5032043;28;20029;-50
2021/05/29 07:46:04;;;;;;;12.63;6.38;;;11.60;99.90;;;;;;5032068;28;20330;-50
2021/05/29 07:48:30;;;;;;;8.95;6.38;;;11.50;99.90;;;;;;5031359;28;20104;-49
2021/05/29 07:51:01;;;;;;;8.90;5.95;;;11.60;99.90;;;;;;5031773;28;20116;-48
2021/05/29 07:53:30;;;;;;;9.75;6.35;;;11.70;99.90;;;;;;5032127;28;20030;-50
2021/05/29 07:55:57;;;;;;;9.50;6.05;;;11.70;99.90;;;;;;5032287;28;20053;-48
2021/05/29 07:58:23;;;;;;;8.32;5.85;;;11.80;99.90;;;;;;5031301;28;20033;-51
2021/05/29 08:00:51;;;;;;;9.32;5.32;;;11.90;99.90;;;;;;5031504;28;20107;-50
2021/05/29 08:03:22;;;;;;;13.82;5.82;;;12.00;99.90;;;;;;5031059;28;20035;-48
2021/05/29 08:05:50;;;;;;;10.55;6.22;;;12.10;99.90;;;;;;5031678;28;20072;-50
2021/05/29 08:08:15;;;;;;;8.07;6.20;;;12.20;99.90;;;;;;5031059;28;20116;-50
2021/05/29 08:10:41;;;;;;;10.63;5.88;;;12.30;99.90;;;;;;5031763;28;20452;-51
2021/05/29 08:13:07;;;;;;;11.32;5.93;;;12.30;99.90;;;;;;5031500;28;20112;-50
2021/05/29 08:15:32;;;;;;;10.60;5.70;;;12.20;99.90;;;;;;5031457;28;20391;-48
2021/05/29 08:17:58;;;;;;;9.25;5.70;;;12.10;99.90;;;;;;5030861;28;20419;-48
2021/05/29 08:20:24;;;;;;;11.05;6.18;;;12.00;99.90;;;;;;5031172;28;20029;-47
2021/05/29 08:22:50;;;;;;;9.60;5.22;;;12.20;99.90;;;;;;5031146;28;20560;-49
2021/05/29 08:25:16;;;;;;;11.85;5.63;;;12.20;99.90;;;;;;5031317;28;20029;-49
2021/05/29 08:27:43;;;;;;;10.13;4.97;;;12.20;99.90;;;;;;5029384;28;20032;-48
2021/05/29 08:30:09;;;;;;;9.50;5.55;;;12.30;99.90;;;;;;5031384;28;20029;-48
2021/05/29 08:32:35;;;;;;;9.32;5.88;;;12.40;99.90;;;;;;5030937;28;20498;-49
2021/05/29 08:35:01;;;;;;;10.05;6.10;;;12.50;99.90;;;;;;5029784;28;20040;-51
2021/05/29 08:37:26;;;;;;;9.35;5.80;;;12.60;99.90;;;;;;5029096;28;20032;-48
2021/05/29 08:39:51;;;;;;;8.93;5.95;;;12.60;99.90;;;;;;5030855;28;20025;-49
2021/05/29 08:42:17;;;;;;;14.00;5.97;;;12.70;99.90;;;;;;5031044;28;20434;-48
2021/05/29 08:44:43;;;;;;;7.45;5.90;;;12.70;99.90;;;;;;5030944;28;20168;-50
2021/05/29 08:47:09;;;;;;;9.23;5.97;;;12.80;99.90;;;;;;5030963;28;20431;-48
2021/05/29 08:49:35;;;;;;;12.82;6.38;;;12.80;99.90;;;;;;5030212;28;20037;-48
2021/05/29 08:52:03;;;;;;;10.07;5.32;;;12.70;99.90;;;;;;5031001;28;20031;-50
2021/05/29 08:54:29;;;;;;;8.88;5.95;;;12.70;99.90;;;;;;5030809;28;20593;-48
2021/05/29 08:56:54;;;;;;;9.07;5.80;;;12.70;99.90;;;;;;5030618;28;20029;-48
2021/05/29 08:59:21;;;;;;;10.10;6.68;;;12.50;99.90;;;;;;5030420;28;20029;-48
2021/05/29 09:01:47;;;;;;;9.45;5.78;;;12.50;99.90;;;;;;5031453;28;20387;-47
2021/05/29 09:04:12;;;;;;;14.80;6.50;;;12.40;99.90;;;;;;5030712;28;20097;-48
2021/05/29 09:06:42;;;;;;;11.20;6.85;;;12.40;99.90;;;;;;5030650;28;20468;-50
2021/05/29 09:09:13;;;;;;;11.15;6.65;;;12.30;99.90;;;;;;5030087;28;20018;-48
2021/05/29 09:11:50;;;;;;;;;;;12.30;99.90;;;;;;5031067;28;20029;-48
2021/05/29 09:14:25;;;;;;;10.18;5.95;;;12.40;99.90;;;;;;5030483;28;19959;-48
2021/05/29 09:17:03;;;;;;;14.27;7.25;;;12.40;99.90;;;;;;5029571;28;20022;-48
2021/05/29 09:19:30;;;;;;;10.45;6.32;;;12.40;99.90;;;;;;5029586;28;20086;-48
2021/05/29 09:21:55;;;;;;;11.85;6.53;;;12.40;99.90;;;;;;5028627;28;20284;-48
2021/05/29 09:24:21;;;;;;;13.15;7.28;;;12.30;99.90;;;;;;5030069;28;20022;-47
2021/05/29 09:26:49;;;;;;;11.60;6.88;;;12.20;99.90;;;;;;5029747;28;20032;-47
2021/05/29 09:29:22;;;;;;;9.50;6.70;;;12.30;99.90;;;;;;5029484;28;20388;-48
2021/05/29 09:32:03;;;;;;;13.52;7.03;;;12.20;99.90;;;;;;5030102;28;20093;-47
2021/05/29 09:34:43;;;;;;;13.00;7.50;;;12.30;99.90;;;;;;5029825;28;20025;-48
2021/05/29 09:37:11;;;;;;;15.53;8.07;;;12.30;99.90;;;;;;5028541;28;20037;-50
2021/05/29 09:39:39;;;;;;;17.77;8.20;;;12.10;99.90;;;;;;5028996;28;20036;-49
2021/05/29 09:42:09;;;;;;;11.60;7.90;;;12.00;99.90;;;;;;5029644;28;20044;-48
2021/05/29 09:44:35;;;;;;;14.73;7.90;;;12.10;99.90;;;;;;5029806;28;20083;-48
2021/05/29 09:47:05;;;;;;;16.15;7.68;;;12.10;99.90;;;;;;5029589;28;20033;-47
2021/05/29 09:49:51;;;;;;;;;;;12.20;99.90;;;;;;5029507;28;20034;-48
2021/05/29 09:52:36;;;;;;;12.63;6.80;;;12.10;99.90;;;;;;5029928;28;19948;-48
2021/05/29 09:55:11;;;;;;;11.88;7.35;;;12.20;99.90;;;;;;5030237;28;20032;-49
2021/05/29 09:57:57;;;;;;;13.13;6.40;;;12.40;99.90;;;;;;5029476;28;20541;-48
2021/05/29 10:00:24;;;;;;;12.52;6.90;;;12.50;99.90;;;;;;5029720;28;20108;-47
2021/05/29 10:03:04;;;;;;;13.40;6.63;;;12.70;99.90;;;;;;5029623;28;20018;-49
2021/05/29 10:05:31;;;;;;;13.85;7.28;;;12.80;99.90;;;;;;5029501;28;20030;-48
2021/05/29 10:07:57;;;;;;;9.23;6.03;;;12.90;99.90;;;;;;5028686;28;20044;-50
2021/05/29 10:10:24;;;;;;;11.15;7.10;;;13.00;99.90;;;;;;5029199;28;20026;-48
2021/05/29 10:12:49;;;;;;;11.13;5.95;;;13.00;99.90;;;;;;5029542;28;20072;-48
2021/05/29 10:15:19;;;;;;;13.10;7.45;;;13.00;99.90;;;;;;5029652;28;20613;-48
2021/05/29 10:17:45;;;;;;;9.57;5.97;;;12.90;99.90;;;;;;5026993;28;20116;-48
2021/05/29 10:20:11;;;;;;;13.80;7.15;;;12.80;99.90;;;;;;5028749;28;20039;-49
2021/05/29 10:22:37;;;;;;;11.93;6.80;;;12.70;99.90;;;;;;5029320;28;20032;-47
2021/05/29 10:25:10;;;;;;;12.32;6.40;;;12.50;99.90;;;;;;5028993;28;20424;-49
2021/05/29 10:27:37;;;;;;;13.40;7.45;;;12.50;99.90;;;;;;5028348;28;20028;-48
2021/05/29 10:30:04;;;;;;;11.38;6.78;;;12.60;99.90;;;;;;5028997;28;20033;-48
2021/05/29 10:32:30;;;;;;;13.43;7.38;;;12.60;99.90;;;;;;5029169;28;20025;-49
2021/05/29 10:35:04;;;;;;;13.85;7.68;;;12.80;99.90;;;;;;5029004;28;20029;-49
2021/05/29 10:37:33;;;;;;;12.45;7.00;;;12.80;99.90;;;;;;5028413;28;20029;-49
2021/05/29 10:40:23;;;;;;;15.13;8.07;;;12.90;99.90;;;;;;5027524;28;21104;-48
2021/05/29 10:43:08;;;;;;;14.32;7.32;;;12.90;99.90;;;;;;5028843;28;20042;-50
2021/05/29 10:45:37;;;;;;;16.60;8.35;;;12.70;99.90;;;;;;5028825;28;20421;-47
2021/05/29 10:48:13;;;;;;;14.93;7.93;;;12.70;99.90;;;;;;5028667;28;20022;-51
2021/05/29 10:53:41;;;;;;;16.55;7.30;;;12.70;99.90;;;;;;5028889;28;20083;-48
2021/05/29 10:56:16;;;;;;;17.05;7.82;;;12.60;99.90;;;;;;5028702;28;20032;-49
2021/05/29 10:58:54;;;;;;;11.10;7.65;;;12.60;99.90;;;;;;5027949;28;20068;-48
2021/05/29 11:01:20;;;;;;;14.90;6.97;;;12.60;99.90;;;;;;5028466;28;20029;-47
2021/05/29 11:03:46;;;;;;;10.00;6.53;;;12.60;99.90;;;;;;5028599;28;20026;-50
2021/05/29 11:06:31;;;;;;;12.40;6.65;;;12.60;99.90;;;;;;5028426;28;20014;-50
2021/05/29 11:09:00;;;;;;;12.13;6.65;;;12.60;99.90;;;;;;5027802;28;20482;-48
2021/05/29 11:14:19;;;;;;;10.32;6.68;;;12.50;99.90;;;;;;5028775;28;20084;-48
2021/05/29 11:16:52;;;;;;;11.55;7.28;;;12.60;99.90;;;;;;5027190;28;20411;-48
2021/05/29 11:19:22;;;;;;;14.23;7.38;;;12.70;99.90;;;;;;5028497;28;20022;-48
2021/05/29 11:22:04;;;;;;;12.38;6.95;;;12.70;99.90;;;;;;5028755;28;20097;-48
2021/05/29 11:24:41;;;;;;;14.80;7.50;;;12.70;99.90;;;;;;5028530;28;20026;-47
2021/05/29 11:27:15;;;;;;;12.05;7.15;;;12.70;99.90;;;;;;5028593;28;20438;-48
2021/05/29 11:29:51;;;;;;;11.55;6.53;;;12.80;99.90;;;;;;5028348;28;20479;-48
2021/05/29 11:35:20;;;;;;;10.45;6.90;;;12.70;99.90;;;;;;5028705;28;20033;-50
2021/05/29 11:38:10;;;;;;;10.73;6.57;;;12.60;99.90;;;;;;5028253;28;20041;-48
2021/05/29 11:40:45;;;;;;;10.52;7.10;;;12.60;99.90;;;;;;5032356;28;20566;-47
2021/05/29 11:43:12;;;;;;;18.38;8.52;;;12.50;99.90;;;;;;5032042;28;20040;-49
2021/05/29 11:45:38;;;;;;;9.70;6.80;;;12.40;99.90;;;;;;5031995;28;20021;-49
2021/05/29 11:48:07;;;;;;;12.82;8.25;;;12.40;99.90;;;;;;5031336;28;20025;-47
2021/05/29 11:50:34;;;;;;;14.43;7.68;;;12.50;99.90;;;;;;5031574;28;20470;-47
2021/05/29 11:53:00;;;;;;;11.50;8.02;;;12.50;99.90;;;;;;5031593;28;20042;-49
2021/05/29 11:55:26;;;;;;;12.80;7.85;;;12.40;99.90;;;;;;5031755;28;20029;-50
2021/05/29 11:57:55;;;;;;;10.65;7.13;;;12.50;99.90;;;;;;5031164;28;20112;-48
2021/05/29 12:00:21;;;;;;;14.18;7.53;;;12.60;99.90;;;;;;5031754;28;20093;-49
2021/05/29 12:02:51;;;;;;;12.38;7.28;;;12.60;99.90;;;;;;5031754;28;20068;-48
2021/05/29 12:05:18;;;;;;;11.70;6.93;;;12.60;99.90;;;;;;5030497;28;20022;-51
2021/05/29 12:08:10;;;;;;;10.95;7.60;;;12.60;99.90;;;;;;5031083;28;20550;-48
2021/05/29 12:10:52;;;;;;;11.13;6.55;;;12.70;99.90;;;;;;5028761;28;20422;-47
2021/05/29 12:13:29;;;;;;;11.48;8.13;;;12.70;99.90;;;;;;5031568;28;20184;-48
2021/05/29 12:15:59;;;;;;;10.93;6.70;;;12.70;99.90;;;;;;5030088;28;20025;-48
2021/05/29 12:18:25;;;;;;;13.32;7.63;;;12.80;99.90;;;;;;5030909;28;20399;-47
2021/05/29 12:20:59;;;;;;;11.43;7.50;;;12.70;99.90;;;;;;5031212;28;20026;-47
2021/05/29 12:23:25;;;;;;;13.50;7.78;;;12.70;99.90;;;;;;5031315;28;20049;-47
2021/05/29 12:25:51;;;;;;;15.73;8.38;;;12.60;99.90;;;;;;5031266;28;20026;-49
2021/05/29 12:28:17;;;;;;;12.85;8.07;;;12.60;99.90;;;;;;5029347;28;20031;-50
2021/05/29 12:30:43;;;;;;;11.48;6.95;;;12.70;99.90;;;;;;5031056;28;20480;-48
2021/05/29 12:33:19;;;;;;;11.32;7.22;;;12.90;99.90;;;;;;5031361;28;20079;-48
2021/05/29 12:35:45;;;;;;;9.05;6.72;;;13.00;99.90;;;;;;5031069;28;20483;-47
2021/05/29 12:38:19;;;;;;;12.23;7.60;;;13.10;99.90;;;;;;5029219;28;20030;-47
2021/05/29 12:41:15;;;;;;;10.93;6.18;;;13.20;99.90;;;;;;5030694;28;20037;-47
2021/05/29 12:43:41;;;;;;;11.07;6.80;;;13.40;99.90;;;;;;5018227;28;20029;-47
2021/05/29 12:46:26;;;;;;;14.80;7.18;;;13.50;99.90;;;;;;5029589;28;20578;-48
2021/05/29 12:49:13;;;;;;;14.07;7.15;;;13.50;99.90;;;;;;5030122;28;20055;-47
2021/05/29 12:51:46;;;;;;;13.82;6.90;;;13.60;99.90;;;;;;5030769;28;20033;-47
2021/05/29 12:54:13;;;;;;;9.25;6.93;;;13.60;99.90;;;;;;5030938;28;20022;-48
2021/05/29 12:56:56;;;;;;;13.48;7.45;;;13.60;99.90;;;;;;5029342;28;20668;-48
2021/05/29 12:59:29;;;;;;;12.68;7.38;;;13.80;99.90;;;;;;5030118;28;20502;-47
2021/05/29 13:02:05;;;;;;;12.13;7.93;;;13.70;99.90;;;;;;5030759;28;20072;-47
2021/05/29 13:07:40;;;;;;;13.20;6.90;;;13.70;99.90;;;;;;5030674;28;20095;-49
2021/05/29 13:12:36;;;;;;;11.68;7.22;;;13.90;99.90;;;;;;5030684;28;20041;-49
2021/05/29 13:15:18;;;;;;;10.43;6.72;;;14.00;99.90;;;;;;5030359;28;20111;-49